createdAt,value
2019-05-21T00:00:39.760Z,97289.58
2019-05-21T00:03:44.210Z,97291.48
2019-05-21T00:06:48.650Z,97293.46
2019-05-21T00:09:53.445Z,97295.86
2019-05-21T00:12:57.885Z,97298.62
2019-05-21T00:16:02.589Z,97292.83
2019-05-21T00:19:07.042Z,97297.67
2019-05-21T00:22:11.752Z,97300.67
2019-05-21T00:25:17.467Z,97298.28
2019-05-21T00:28:39.338Z,97301.30
2019-05-21T00:32:38.642Z,97302.89
2019-05-21T00:36:39.463Z,97298.75
2019-05-21T00:40:38.904Z,97299.88
2019-05-21T00:43:57.023Z,97298.75
2019-05-21T00:47:02.147Z,97302.00
2019-05-21T00:50:08.224Z,97296.06
2019-05-21T00:53:12.661Z,97298.11
2019-05-21T00:56:17.120Z,97296.44
2019-05-21T00:59:21.580Z,97290.92
2019-05-21T01:02:26.354Z,97302.92
2019-05-21T01:05:30.815Z,97293.59
2019-05-21T01:08:35.259Z,97291.99
2019-05-21T01:11:40.038Z,97293.05
2019-05-21T01:14:44.494Z,97296.52
2019-05-21T01:17:49.328Z,97286.92
2019-05-21T01:20:53.834Z,97294.05
2019-05-21T01:23:58.548Z,97295.45
2019-05-21T01:27:03.284Z,97295.26
2019-05-21T01:30:08.069Z,97303.37
2019-05-21T01:33:12.513Z,97303.80
2019-05-21T01:36:17.270Z,97306.16
2019-05-21T01:39:21.717Z,97304.41
2019-05-21T01:42:26.157Z,97307.80
2019-05-21T01:45:30.612Z,97306.34
2019-05-21T01:48:35.055Z,97303.66
2019-05-21T01:51:39.526Z,97307.20
2019-05-21T01:54:43.965Z,97309.03
2019-05-21T01:57:48.414Z,97308.98
2019-05-21T02:00:52.861Z,97312.95
2019-05-21T02:03:57.303Z,97314.42
2019-05-21T02:07:02.010Z,97307.04
2019-05-21T02:10:08.457Z,97310.92
2019-05-21T02:13:12.903Z,97310.87
2019-05-21T02:16:17.642Z,97307.69
2019-05-21T02:19:22.372Z,97306.13
2019-05-21T02:22:27.096Z,97315.11
2019-05-21T02:25:31.830Z,97317.82
2019-05-21T02:28:36.280Z,97313.34
2019-05-21T02:31:40.733Z,97314.48
2019-05-21T02:34:45.510Z,97321.75
2019-05-21T02:37:49.970Z,97314.48
2019-05-21T02:40:54.396Z,97312.52
2019-05-21T02:44:00.118Z,97309.63
2019-05-21T02:47:04.567Z,97313.61
2019-05-21T02:50:09.449Z,97314.41
2019-05-21T02:53:13.905Z,97308.56
2019-05-21T02:56:18.354Z,97319.59
2019-05-21T02:59:22.869Z,97312.60
2019-05-21T03:02:37.487Z,97314.09
2019-05-21T03:05:41.934Z,97318.77
2019-05-21T03:08:46.662Z,97323.84
2019-05-21T03:11:51.183Z,97329.70
2019-05-21T03:14:55.623Z,97318.63
2019-05-21T03:18:00.353Z,97315.22
2019-05-21T03:21:05.088Z,97320.75
2019-05-21T03:24:09.537Z,97324.98
2019-05-21T03:27:13.994Z,97333.97
2019-05-21T03:30:18.603Z,97331.60
2019-05-21T03:33:23.383Z,97335.04
2019-05-21T03:36:33.179Z,97325.25
2019-05-21T03:39:34.872Z,97328.80
2019-05-21T03:42:39.318Z,97338.81
2019-05-21T03:45:43.759Z,97340.11
2019-05-21T03:48:48.472Z,97341.34
2019-05-21T03:51:52.909Z,97345.05
2019-05-21T03:54:57.366Z,97344.97
2019-05-21T03:58:01.801Z,97348.78
2019-05-21T04:01:06.573Z,97352.79
2019-05-21T04:04:11.316Z,97351.62
2019-05-21T04:07:15.750Z,97360.83
2019-05-21T04:10:20.560Z,97355.34
2019-05-21T04:13:25.009Z,97358.14
2019-05-21T04:16:49.145Z,97357.97
2019-05-21T04:19:53.592Z,97362.75
2019-05-21T04:22:58.333Z,97363.84
2019-05-21T04:26:02.783Z,97364.01
2019-05-21T04:29:07.483Z,97365.87
2019-05-21T04:32:12.183Z,97363.98
2019-05-21T04:35:17.405Z,97367.38
2019-05-21T04:38:21.858Z,97370.08
2019-05-21T04:41:26.303Z,97363.66
2019-05-21T04:44:30.747Z,97364.15
2019-05-21T04:47:35.466Z,97371.25
2019-05-21T04:50:39.926Z,97370.09
2019-05-21T04:53:44.447Z,97370.70
2019-05-21T04:56:49.132Z,97378.41
2019-05-21T04:59:53.594Z,97379.56
2019-05-21T05:02:58.291Z,97382.62
2019-05-21T05:06:02.744Z,97379.87
2019-05-21T05:09:07.653Z,97384.83
2019-05-21T05:12:12.383Z,97382.80
2019-05-21T05:15:17.004Z,97394.73
2019-05-21T05:18:21.437Z,97384.56
2019-05-21T05:21:25.888Z,97392.04
2019-05-21T05:24:30.338Z,97385.80
2019-05-21T05:27:35.109Z,97385.31
2019-05-21T05:30:39.554Z,97388.55
2019-05-21T05:33:44.265Z,97384.45
2019-05-21T05:36:48.706Z,97393.58
2019-05-21T05:39:53.151Z,97392.14
2019-05-21T05:42:57.587Z,97383.16
2019-05-21T05:46:02.039Z,97380.31
2019-05-21T05:49:11.597Z,97374.25
2019-05-21T05:52:16.338Z,97374.66
2019-05-21T05:55:21.067Z,97376.58
2019-05-21T05:58:25.545Z,97373.77
2019-05-21T06:01:31.699Z,97373.77
2019-05-21T06:04:36.145Z,97386.23
2019-05-21T06:07:40.581Z,97384.41
2019-05-21T06:10:45.339Z,97378.05
2019-05-21T06:13:49.774Z,97374.98
2019-05-21T06:16:54.487Z,97378.61
2019-05-21T06:19:58.926Z,97378.78
2019-05-21T06:23:03.365Z,97379.32
2019-05-21T06:26:08.275Z,97380.53
2019-05-21T06:29:13.067Z,97374.56
2019-05-21T06:32:17.528Z,97384.56
2019-05-21T06:35:21.970Z,97387.70
2019-05-21T06:38:26.678Z,97390.45
2019-05-21T06:41:31.124Z,97396.25
2019-05-21T06:44:35.843Z,97392.91
2019-05-21T06:47:40.565Z,97380.80
2019-05-21T06:50:45.019Z,97380.72
2019-05-21T06:53:49.459Z,97378.22
2019-05-21T06:56:53.900Z,97383.49
2019-05-21T06:59:58.389Z,97384.88
2019-05-21T07:03:02.830Z,97374.06
2019-05-21T07:06:07.275Z,97381.59
2019-05-21T07:09:12.079Z,97385.56
2019-05-21T07:12:16.496Z,97390.08
2019-05-21T07:15:21.006Z,97384.89
2019-05-21T07:18:25.435Z,97388.13
2019-05-21T07:21:29.903Z,97387.81
2019-05-21T07:24:34.334Z,97389.73
2019-05-21T07:27:38.803Z,97392.72
2019-05-21T07:30:43.523Z,97402.13
2019-05-21T07:33:47.955Z,97392.72
2019-05-21T07:36:52.409Z,97391.80
2019-05-21T07:39:56.848Z,97388.56
2019-05-21T07:43:01.828Z,97395.41
2019-05-21T07:46:06.339Z,97389.41
2019-05-21T07:49:10.780Z,97393.27
2019-05-21T07:52:15.228Z,97392.58
2019-05-21T07:55:19.666Z,97379.75
2019-05-21T07:58:24.359Z,97376.87
2019-05-21T08:01:28.808Z,97384.51
2019-05-21T08:04:33.510Z,97391.11
2019-05-21T08:07:37.955Z,97389.66
2019-05-21T08:10:42.440Z,97388.55
2019-05-21T08:13:46.846Z,97382.57
2019-05-21T08:16:51.289Z,97381.45
2019-05-21T08:20:08.083Z,97385.09
2019-05-21T08:23:02.217Z,97393.70
2019-05-21T08:26:06.657Z,97394.36
2019-05-21T08:29:11.360Z,97395.77
2019-05-21T08:32:15.806Z,97393.08
2019-05-21T08:35:20.245Z,97397.54
2019-05-21T08:38:24.692Z,97388.17
2019-05-21T08:41:29.458Z,97399.63
2019-05-21T08:44:33.900Z,97401.24
2019-05-21T08:47:38.824Z,97414.70
2019-05-21T08:50:43.255Z,97412.55
2019-05-21T08:53:48.690Z,97419.63
2019-05-21T08:56:53.134Z,97424.05
2019-05-21T08:59:57.579Z,97433.76
2019-05-21T09:03:02.020Z,97428.05
2019-05-21T09:06:06.895Z,97438.66
2019-05-21T09:09:11.346Z,97441.58
2019-05-21T09:12:16.097Z,97434.36
2019-05-21T09:15:21.088Z,97451.09
2019-05-21T09:18:25.826Z,97455.13
2019-05-21T09:21:30.261Z,97449.48
2019-05-21T09:24:34.972Z,97450.88
2019-05-21T09:27:40.219Z,97454.64
2019-05-21T09:30:44.655Z,97461.54
2019-05-21T09:33:49.097Z,97457.33
2019-05-21T09:36:53.531Z,97464.41
2019-05-21T09:39:57.982Z,97474.67
2019-05-21T09:43:02.416Z,97477.13
2019-05-21T09:46:07.163Z,97477.38
2019-05-21T09:49:11.606Z,97484.23
2019-05-21T09:52:16.048Z,97490.41
2019-05-21T09:55:20.746Z,97487.30
2019-05-21T09:58:26.829Z,97485.81
2019-05-21T10:01:32.946Z,97502.63
2019-05-21T10:04:37.705Z,97503.38
2019-05-21T10:07:42.155Z,97497.13
2019-05-21T10:10:46.856Z,97508.40
2019-05-21T10:13:51.311Z,97515.25
2019-05-21T10:16:56.013Z,97514.95
2019-05-21T10:20:00.475Z,97516.91
2019-05-21T10:23:04.979Z,97524.25
2019-05-21T10:26:09.419Z,97535.65
2019-05-21T10:29:14.121Z,97537.77
2019-05-21T10:32:18.561Z,97549.84
2019-05-21T10:35:23.075Z,97553.70
2019-05-21T10:38:27.801Z,97558.65
2019-05-21T10:41:32.240Z,97556.39
2019-05-21T10:44:36.702Z,97566.13
2019-05-21T10:47:41.138Z,97575.69
2019-05-21T10:50:45.580Z,97573.36
2019-05-21T10:53:50.037Z,97569.11
2019-05-21T10:56:54.467Z,97574.83
2019-05-21T10:59:59.173Z,97576.09
2019-05-21T11:03:03.729Z,97578.88
2019-05-21T11:06:10.501Z,97580.22
2019-05-21T11:09:16.285Z,97586.55
2019-05-21T11:12:21.059Z,97589.56
2019-05-21T11:15:25.552Z,97590.37
2019-05-21T11:18:30.051Z,97601.14
2019-05-21T11:21:34.746Z,97599.11
2019-05-21T11:24:39.472Z,97603.83
2019-05-21T11:27:43.909Z,97609.52
2019-05-21T11:30:48.354Z,97615.58
2019-05-21T11:33:53.127Z,97627.77
2019-05-21T11:36:57.889Z,97626.38
2019-05-21T11:40:02.679Z,97632.55
2019-05-21T11:43:07.110Z,97633.28
2019-05-21T11:46:11.553Z,97632.02
2019-05-21T11:49:15.980Z,97636.59
2019-05-21T11:52:20.443Z,97640.81
2019-05-21T11:55:25.121Z,97640.81
2019-05-21T11:58:29.563Z,97641.80
2019-05-21T12:01:34.008Z,97641.17
2019-05-21T12:04:39.439Z,97647.19
2019-05-21T12:07:44.476Z,97648.09
2019-05-21T12:10:50.016Z,97654.34
2019-05-21T12:13:54.758Z,97653.93
2019-05-21T12:16:59.203Z,97655.03
2019-05-21T12:20:07.169Z,97660.16
2019-05-21T12:23:11.595Z,97664.08
2019-05-21T12:26:16.342Z,97673.41
2019-05-21T12:29:20.778Z,97669.91
2019-05-21T12:32:25.222Z,97672.30
2019-05-21T12:35:29.920Z,97678.41
2019-05-21T12:38:34.362Z,97677.77
2019-05-21T12:41:38.870Z,97681.98
2019-05-21T12:44:43.710Z,97682.45
2019-05-21T12:47:50.590Z,97688.65
2019-05-21T12:50:54.782Z,97689.27
2019-05-21T12:53:59.533Z,97699.02
2019-05-21T12:57:03.978Z,97684.61
2019-05-21T13:00:12.992Z,97701.14
2019-05-21T13:03:17.433Z,97708.14
2019-05-21T13:06:21.882Z,97701.94
2019-05-21T13:09:32.727Z,97720.77
2019-05-21T13:12:32.494Z,97727.23
2019-05-21T13:15:36.917Z,97724.72
2019-05-21T13:18:41.779Z,97735.09
2019-05-21T13:21:46.235Z,97735.14
2019-05-21T13:24:50.937Z,97731.67
2019-05-21T13:27:57.527Z,97746.95
2019-05-21T13:31:01.575Z,97748.73
2019-05-21T13:34:06.271Z,97759.58
2019-05-21T13:37:10.897Z,97763.30
2019-05-21T13:40:17.747Z,97768.78
2019-05-21T13:43:22.264Z,97786.84
2019-05-21T13:46:26.696Z,97778.67
2019-05-21T13:49:31.141Z,97786.35
2019-05-21T13:52:35.588Z,97781.13
2019-05-21T13:55:40.031Z,97789.58
2019-05-21T13:58:44.913Z,97793.03
2019-05-21T14:01:49.438Z,97788.45
2019-05-21T14:04:53.889Z,97798.02
2019-05-21T14:07:58.597Z,97798.45
2019-05-21T14:11:03.338Z,97797.73
2019-05-21T14:14:08.164Z,97803.03
2019-05-21T14:17:12.683Z,97805.78
2019-05-21T14:20:17.480Z,97800.61
2019-05-21T14:23:22.258Z,97800.73
2019-05-21T14:26:26.987Z,97813.92
2019-05-21T14:29:31.719Z,97811.51
2019-05-21T14:32:36.216Z,97819.05
2019-05-21T14:35:40.793Z,97817.55
2019-05-21T14:38:45.239Z,97830.33
2019-05-21T14:41:50.019Z,97825.98
2019-05-21T14:44:54.505Z,97831.09
2019-05-21T14:47:58.899Z,97835.83
2019-05-21T14:51:03.340Z,97838.36
2019-05-21T14:54:07.786Z,97845.84
2019-05-21T14:57:12.221Z,97850.34
2019-05-21T15:00:20.383Z,97852.58
2019-05-21T15:03:25.738Z,97852.88
2019-05-21T15:06:30.252Z,97857.88
2019-05-21T15:09:34.710Z,97861.61
2019-05-21T15:12:39.380Z,97864.16
2019-05-21T15:15:43.828Z,97864.55
2019-05-21T15:18:48.555Z,97873.13
2019-05-21T15:21:54.648Z,97872.13
2019-05-21T15:24:59.632Z,97870.16
2019-05-21T15:28:04.075Z,97873.59
2019-05-21T15:31:08.592Z,97880.97
2019-05-21T15:34:13.036Z,97876.05
2019-05-21T15:37:17.476Z,97884.20
2019-05-21T15:40:22.769Z,97884.20
2019-05-21T15:43:27.494Z,97886.94
2019-05-21T15:46:47.094Z,97884.97
2019-05-21T15:49:38.223Z,97890.75
2019-05-21T15:52:42.658Z,97889.75
2019-05-21T15:55:47.104Z,97893.41
2019-05-21T15:58:51.571Z,97891.98
2019-05-21T16:01:56.299Z,97893.25
2019-05-21T16:05:01.036Z,97894.80
2019-05-21T16:08:05.866Z,97901.98
2019-05-21T16:11:27.522Z,97904.83
2019-05-21T16:14:16.472Z,97903.56
2019-05-21T16:17:20.912Z,97902.06
2019-05-21T16:20:25.606Z,97907.43
2019-05-21T16:23:30.045Z,97911.03
2019-05-21T16:26:34.564Z,97910.89
2019-05-21T16:29:39.284Z,97914.28
2019-05-21T16:32:43.723Z,97920.17
2019-05-21T16:35:48.445Z,97917.22
2019-05-21T16:38:52.970Z,97915.81
2019-05-21T16:41:57.697Z,97925.09
2019-05-21T16:45:02.254Z,97927.14
2019-05-21T16:48:06.885Z,97927.75
2019-05-21T16:51:11.793Z,97940.81
2019-05-21T16:54:16.225Z,97939.23
2019-05-21T16:57:20.840Z,97939.93
2019-05-21T17:00:27.156Z,97945.63
2019-05-21T17:03:31.595Z,97938.92
2019-05-21T17:06:36.367Z,97943.50
2019-05-21T17:09:41.098Z,97937.08
2019-05-21T17:12:45.821Z,97942.60
2019-05-21T17:15:50.551Z,97939.91
2019-05-21T17:18:54.994Z,97946.03
2019-05-21T17:21:59.445Z,97952.50
2019-05-21T17:25:05.874Z,97959.40
2019-05-21T17:28:10.562Z,97963.34
2019-05-21T17:31:15.017Z,97962.77
2019-05-21T17:34:20.474Z,97962.73
2019-05-21T17:37:24.919Z,97970.00
2019-05-21T17:40:29.373Z,97971.66
2019-05-21T17:43:34.057Z,97969.06
2019-05-21T17:46:38.786Z,97970.71
2019-05-21T17:49:43.285Z,97976.70
2019-05-21T17:52:48.297Z,97976.94
2019-05-21T17:55:52.737Z,97986.37
2019-05-21T17:58:57.499Z,97991.75
2019-05-21T18:02:03.656Z,97992.89
2019-05-21T18:05:09.270Z,97985.92
2019-05-21T18:08:17.031Z,97996.02
2019-05-21T18:11:20.649Z,98002.14
2019-05-21T18:14:25.684Z,97999.62
2019-05-21T18:17:30.903Z,98002.11
2019-05-21T18:20:35.701Z,98013.09
2019-05-21T18:23:40.575Z,98009.77
2019-05-21T18:26:45.092Z,98014.53
2019-05-21T18:29:49.592Z,98020.87
2019-05-21T18:32:54.354Z,98023.62
2019-05-21T18:35:58.793Z,98024.73
2019-05-21T18:39:03.604Z,98038.94
2019-05-21T18:42:21.110Z,98034.72
2019-05-21T18:45:14.611Z,98047.98
2019-05-21T18:48:19.057Z,98047.70
2019-05-21T18:51:23.766Z,98054.64
2019-05-21T18:54:28.203Z,98051.32
2019-05-21T18:57:32.719Z,98063.52
2019-05-21T19:00:37.159Z,98067.31
2019-05-21T19:03:41.600Z,98066.08
2019-05-21T19:06:46.596Z,98074.55
2019-05-21T19:09:51.033Z,98077.22
2019-05-21T19:12:55.644Z,98078.99
2019-05-21T19:16:00.145Z,98086.78
2019-05-21T19:19:04.914Z,98086.78
2019-05-21T19:22:09.707Z,98088.18
2019-05-21T19:25:15.270Z,98094.95
2019-05-21T19:28:19.725Z,98098.19
2019-05-21T19:31:24.232Z,98097.55
2019-05-21T19:34:28.976Z,98101.77
2019-05-21T19:37:33.705Z,98105.62
2019-05-21T19:40:38.145Z,98109.12
2019-05-21T19:43:42.863Z,98112.81
2019-05-21T19:46:47.298Z,98113.39
2019-05-21T19:49:51.778Z,98121.66
2019-05-21T19:52:56.220Z,98126.08
2019-05-21T19:56:01.099Z,98127.55
2019-05-21T19:59:06.154Z,98128.45
2019-05-21T20:02:12.367Z,98134.69
2019-05-21T20:05:17.013Z,98136.22
2019-05-21T20:08:21.530Z,98140.31
2019-05-21T20:11:26.660Z,98147.84
2019-05-21T20:14:32.517Z,98148.68
2019-05-21T20:17:38.748Z,98147.53
2019-05-21T20:20:44.541Z,98151.94
2019-05-21T20:23:48.988Z,98157.86
2019-05-21T20:26:53.472Z,98159.73
2019-05-21T20:30:11.616Z,98154.06
2019-05-21T20:33:05.531Z,98162.45
2019-05-21T20:36:10.808Z,98155.48
2019-05-21T20:39:16.815Z,98158.71
2019-05-21T20:42:23.397Z,98164.51
2019-05-21T20:45:27.926Z,98167.58
2019-05-21T20:48:34.022Z,98166.47
2019-05-21T20:51:38.994Z,98170.41
2019-05-21T20:54:44.281Z,98172.86
2019-05-21T20:57:49.033Z,98167.69
2019-05-21T21:00:55.403Z,98179.53
2019-05-21T21:04:00.668Z,98173.59
2019-05-21T21:07:06.905Z,98174.72
2019-05-21T21:10:13.030Z,98165.81
2019-05-21T21:13:18.624Z,98169.36
2019-05-21T21:16:23.266Z,98169.58
2019-05-21T21:19:28.685Z,98176.81
2019-05-21T21:22:33.134Z,98171.64
2019-05-21T21:25:38.291Z,98173.44
2019-05-21T21:28:42.749Z,98179.66
2019-05-21T21:31:47.667Z,98177.16
2019-05-21T21:34:52.183Z,98187.87
2019-05-21T21:37:56.632Z,98191.60
2019-05-21T21:41:01.083Z,98192.73
2019-05-21T21:44:06.187Z,98197.01
2019-05-21T21:47:11.337Z,98200.73
2019-05-21T21:50:17.195Z,98199.67
2019-05-21T21:53:21.628Z,98196.20
2019-05-21T21:56:26.349Z,98196.00
2019-05-21T21:59:30.797Z,98199.28
2019-05-21T22:02:36.273Z,98194.73
2019-05-21T22:05:41.765Z,98191.42
2019-05-21T22:08:46.476Z,98196.69
2019-05-21T22:11:52.197Z,98201.05
2019-05-21T22:15:00.863Z,98197.30
2019-05-21T22:18:06.629Z,98202.89
2019-05-21T22:21:11.765Z,98206.72
2019-05-21T22:24:16.465Z,98196.20
2019-05-21T22:27:21.543Z,98203.43
2019-05-21T22:30:27.702Z,98201.16
2019-05-21T22:33:33.360Z,98201.20
2019-05-21T22:36:38.194Z,98199.63
2019-05-21T22:39:43.720Z,98198.58
2019-05-21T22:42:48.577Z,98201.34
2019-05-21T22:45:53.293Z,98200.13
2019-05-21T22:48:57.729Z,98202.63
2019-05-21T22:52:02.470Z,98201.71
2019-05-21T22:55:08.732Z,98214.73
2019-05-21T22:58:13.234Z,98205.84
2019-05-21T23:01:18.188Z,98210.36
2019-05-21T23:04:22.700Z,98207.69
2019-05-21T23:07:27.150Z,98206.83
2019-05-21T23:10:32.003Z,98210.06
2019-05-21T23:13:36.709Z,98210.06
2019-05-21T23:16:41.326Z,98206.75
2019-05-21T23:19:46.365Z,98206.27
2019-05-21T23:22:53.120Z,98210.45
2019-05-21T23:25:57.838Z,98210.73
2019-05-21T23:29:03.120Z,98212.41
2019-05-21T23:32:08.539Z,98209.95
2019-05-21T23:35:14.334Z,98207.17
2019-05-21T23:38:20.021Z,98207.78
2019-05-21T23:41:24.909Z,98212.94
2019-05-21T23:44:29.823Z,98216.95
2019-05-21T23:47:34.273Z,98211.39
2019-05-21T23:50:38.785Z,98213.23
2019-05-21T23:53:43.303Z,98212.66
2019-05-21T23:56:48.492Z,98215.95
2019-05-21T23:59:53.394Z,98215.65
